createdAt,value
2019-01-16T00:01:09.990Z,3.96
2019-01-16T00:07:04.993Z,4.92
2019-01-16T00:13:00.002Z,5.9
2019-01-16T00:18:55.011Z,6.72
2019-01-16T00:24:50.026Z,4.03
2019-01-16T00:30:44.989Z,5.14
2019-01-16T00:36:40.026Z,3.05
2019-01-16T00:42:34.984Z,3.58
2019-01-16T00:48:29.965Z,4.95
2019-01-16T00:54:24.987Z,5.32
2019-01-16T01:00:19.993Z,4.35
2019-01-16T01:06:14.979Z,4.26
2019-01-16T01:12:10.032Z,3.66
2019-01-16T01:18:04.975Z,7.42
2019-01-16T01:23:59.991Z,4.23
2019-01-16T01:29:54.988Z,6.44
2019-01-16T01:35:49.991Z,3.29
2019-01-16T01:41:44.989Z,3.59
2019-01-16T01:47:40.067Z,4.82
2019-01-16T01:53:35.053Z,3.61
2019-01-16T01:59:30.035Z,2.97
2019-01-16T02:05:24.993Z,3.33
2019-01-16T02:11:20.036Z,2.17
2019-01-16T02:17:15.021Z,2.8
2019-01-16T02:23:09.996Z,2.78
2019-01-16T02:29:04.991Z,3.47
2019-01-16T02:35:00.036Z,3.43
2019-01-16T02:40:55.007Z,3.81
2019-01-16T02:46:50.017Z,3.23
2019-01-16T02:52:45.022Z,3.81
2019-01-16T02:58:40.002Z,4.42
2019-01-16T03:04:35.058Z,4.73
2019-01-16T03:10:30.016Z,4.28
2019-01-16T03:16:25.008Z,4.09
2019-01-16T03:22:20.038Z,5.12
2019-01-16T03:28:15.001Z,4.92
2019-01-16T03:34:10.040Z,4.25
2019-01-16T03:40:05.006Z,3.61
2019-01-16T03:46:00.032Z,3.51
2019-01-16T03:51:55.038Z,3.7
2019-01-16T03:57:50.014Z,4.09
2019-01-16T04:03:45.027Z,3.95
2019-01-16T04:09:40.024Z,3.04
2019-01-16T04:15:35.015Z,3.12
2019-01-16T04:21:30.050Z,4.07
2019-01-16T04:27:25.043Z,2.91
2019-01-16T04:33:20.049Z,3.37
2019-01-16T04:39:15.042Z,4.02
2019-01-16T04:45:10.055Z,4.03
2019-01-16T04:51:05.091Z,4.7
2019-01-16T04:57:00.031Z,6.35
2019-01-16T05:02:55.050Z,7.16
2019-01-16T05:08:50.032Z,7.58
2019-01-16T05:14:45.055Z,6.63
2019-01-16T05:20:40.046Z,7.94
2019-01-16T05:26:35.049Z,7.57
2019-01-16T05:32:30.048Z,6.25
2019-01-16T05:38:25.048Z,6.26
2019-01-16T05:44:20.060Z,6.82
2019-01-16T05:50:15.082Z,5.86
2019-01-16T05:56:10.043Z,6.41
2019-01-16T06:02:05.096Z,6.63
2019-01-16T06:08:00.062Z,7.71
2019-01-16T06:13:55.067Z,7.46
2019-01-16T06:19:53.975Z,8.39
2019-01-16T06:25:45.052Z,7.83
2019-01-16T06:31:40.087Z,7.95
2019-01-16T06:37:35.063Z,7.97
2019-01-16T06:43:30.070Z,8.63
2019-01-16T06:49:25.058Z,10.1
2019-01-16T06:55:20.067Z,9.28
2019-01-16T07:01:15.076Z,10.08
2019-01-16T07:07:10.113Z,10.83
2019-01-16T07:13:05.082Z,12.59
2019-01-16T07:19:00.077Z,13.04
2019-01-16T07:24:55.117Z,10.82
2019-01-16T07:30:50.126Z,12.22
2019-01-16T07:36:45.165Z,11.37
2019-01-16T07:42:46.611Z,9.19
2019-01-16T07:48:35.091Z,10.53
2019-01-16T07:54:30.090Z,11.1
2019-01-16T08:00:25.135Z,9.69
2019-01-16T08:06:20.070Z,10.98
2019-01-16T08:12:15.087Z,11.25
2019-01-16T08:18:10.087Z,12.93
2019-01-16T08:24:05.137Z,15.86
2019-01-16T08:30:00.194Z,14.5
2019-01-16T08:35:55.121Z,14.27
2019-01-16T08:41:50.101Z,13.98
2019-01-16T08:47:45.143Z,13.38
2019-01-16T08:53:40.111Z,11.94
2019-01-16T08:59:35.152Z,12.78
2019-01-16T09:05:30.125Z,11.46
2019-01-16T09:11:25.143Z,11.3
2019-01-16T09:17:20.086Z,11.45
2019-01-16T09:23:15.123Z,12.1
2019-01-16T09:29:10.140Z,12.51
2019-01-16T09:35:05.105Z,13.62
2019-01-16T09:41:00.147Z,13.69
2019-01-16T09:46:55.147Z,13.78
2019-01-16T09:52:50.133Z,15.1
2019-01-16T09:58:45.116Z,14.42
2019-01-16T10:04:40.151Z,14.35
2019-01-16T10:10:35.117Z,14.95
2019-01-16T10:16:30.160Z,14.02
2019-01-16T10:22:25.150Z,12.98
2019-01-16T10:28:20.119Z,10.96
2019-01-16T10:34:15.163Z,10.89
2019-01-16T10:40:10.136Z,9.34
2019-01-16T10:46:05.120Z,10.3
2019-01-16T10:52:00.133Z,11.22
2019-01-16T10:57:55.146Z,9.63
2019-01-16T11:03:50.126Z,9.48
2019-01-16T11:09:45.158Z,9.66
2019-01-16T11:15:40.140Z,9.97
2019-01-16T11:21:35.146Z,9.71
2019-01-16T11:27:30.145Z,8.58
2019-01-16T11:33:25.133Z,7.07
2019-01-16T11:39:20.139Z,7.23
2019-01-16T11:45:15.135Z,7.32
2019-01-16T11:51:10.176Z,6.48
2019-01-16T11:57:05.206Z,6.76
2019-01-16T12:03:00.130Z,7.33
2019-01-16T12:08:55.171Z,7.13
2019-01-16T12:14:50.179Z,7.53
2019-01-16T12:20:45.137Z,6.96
2019-01-16T12:26:40.133Z,6.47
2019-01-16T12:32:35.147Z,6.57
2019-01-16T12:38:30.203Z,6.75
2019-01-16T12:44:25.137Z,5.86
2019-01-16T12:50:20.156Z,5.13
2019-01-16T12:56:15.144Z,5.96
2019-01-16T13:02:10.161Z,5.1
2019-01-16T13:08:05.197Z,5.02
2019-01-16T13:14:00.155Z,5.36
2019-01-16T13:19:55.152Z,4.23
2019-01-16T13:25:50.233Z,4.31
2019-01-16T13:31:45.172Z,5.57
2019-01-16T13:37:40.169Z,3.82
2019-01-16T13:43:35.173Z,5.34
2019-01-16T13:49:30.152Z,4.03
2019-01-16T13:55:25.165Z,4.4
2019-01-16T14:01:20.185Z,4.36
2019-01-16T14:07:15.166Z,3.35
2019-01-16T14:13:10.222Z,3.52
2019-01-16T14:19:05.188Z,3.63
2019-01-16T14:25:00.188Z,5.45
2019-01-16T14:30:55.166Z,4.8
2019-01-16T14:36:50.157Z,3.72
2019-01-16T14:42:45.217Z,3.98
2019-01-16T14:48:40.163Z,4.69
2019-01-16T14:54:35.198Z,4.86
2019-01-16T15:00:30.209Z,5.29
2019-01-16T15:06:25.169Z,6.33
2019-01-16T15:12:20.236Z,6.37
2019-01-16T15:18:15.201Z,8.37
2019-01-16T15:24:10.214Z,8
2019-01-16T15:30:05.203Z,7.17
2019-01-16T15:36:00.215Z,7.89
2019-01-16T15:41:55.193Z,7.19
2019-01-16T15:47:50.178Z,7.47
2019-01-16T15:53:45.206Z,9.46
2019-01-16T15:59:40.195Z,8.65
2019-01-16T16:05:35.178Z,9.83
2019-01-16T16:11:30.185Z,12.04
2019-01-16T16:17:25.280Z,8.73
2019-01-16T16:23:20.190Z,7.26
2019-01-16T16:29:15.204Z,6.55
2019-01-16T16:35:10.209Z,8.4
2019-01-16T16:41:05.183Z,8.76
2019-01-16T16:47:00.217Z,9.09
2019-01-16T16:52:55.197Z,8.59
2019-01-16T16:58:54.392Z,7.53
2019-01-16T17:04:45.206Z,7.35
2019-01-16T17:10:40.231Z,7.79
2019-01-16T17:16:35.256Z,6.1
2019-01-16T17:22:32.420Z,6.38
2019-01-16T17:28:25.224Z,7.28
2019-01-16T17:34:20.219Z,8.27
2019-01-16T17:40:15.208Z,7.68
2019-01-16T17:46:10.263Z,8.84
2019-01-16T17:52:05.233Z,8.53
2019-01-16T17:58:00.225Z,10.5
2019-01-16T18:03:55.244Z,12.53
2019-01-16T18:09:50.211Z,12.41
2019-01-16T18:15:45.217Z,11.89
2019-01-16T18:21:40.240Z,9.84
2019-01-16T18:27:35.234Z,8.38
2019-01-16T18:33:30.235Z,9.74
2019-01-16T18:39:25.264Z,9.02
2019-01-16T18:45:20.268Z,10.28
2019-01-16T18:51:15.226Z,9.51
2019-01-16T18:57:10.229Z,12.53
2019-01-16T19:03:05.228Z,13.51
2019-01-16T19:09:00.214Z,12.06
2019-01-16T19:14:55.230Z,10.31
2019-01-16T19:20:50.230Z,11.1
2019-01-16T19:26:45.279Z,14.03
2019-01-16T19:32:40.221Z,10.1
2019-01-16T19:38:35.232Z,8.96
2019-01-16T19:44:30.217Z,11.31
2019-01-16T19:50:25.300Z,12.39
2019-01-16T19:56:20.277Z,23.67
2019-01-16T20:02:15.260Z,17.6
2019-01-16T20:08:10.266Z,12.38
2019-01-16T20:14:05.239Z,13.73
2019-01-16T20:20:00.237Z,13.97
2019-01-16T20:25:55.226Z,16.4
2019-01-16T20:31:50.248Z,14.34
2019-01-16T20:37:45.227Z,13.31
2019-01-16T20:43:40.251Z,13.07
2019-01-16T20:49:35.260Z,11.31
2019-01-16T20:55:30.235Z,10.9
2019-01-16T21:01:25.251Z,11.39
2019-01-16T21:07:20.257Z,27.09
2019-01-16T21:13:15.268Z,16.88
2019-01-16T21:19:10.265Z,15.88
2019-01-16T21:25:05.228Z,15.77
2019-01-16T21:31:00.236Z,15.29
2019-01-16T21:36:55.237Z,12.58
2019-01-16T21:42:50.240Z,10.83
2019-01-16T21:48:45.237Z,9.04
2019-01-16T21:54:40.233Z,9.97
2019-01-16T22:00:35.239Z,7.98
2019-01-16T22:06:30.250Z,7.01
2019-01-16T22:12:25.289Z,6.8
2019-01-16T22:18:20.256Z,7.73
2019-01-16T22:24:15.231Z,6.6
2019-01-16T22:30:10.250Z,6.82
2019-01-16T22:36:05.241Z,5.61
2019-01-16T22:42:00.284Z,7.32
2019-01-16T22:47:55.239Z,6.36
2019-01-16T22:53:50.283Z,5.59
2019-01-16T22:59:45.276Z,5.31
2019-01-16T23:05:40.250Z,5.72
2019-01-16T23:11:35.255Z,8.58
2019-01-16T23:17:30.238Z,9.5
2019-01-16T23:23:25.241Z,9.09
2019-01-16T23:29:20.415Z,6.95
2019-01-16T23:35:15.245Z,4.73
2019-01-16T23:41:10.248Z,5.69
2019-01-16T23:47:05.302Z,6.13
2019-01-16T23:53:00.278Z,4.75
2019-01-16T23:58:55.267Z,5.75
